createdAt,value
2022-08-28T00:01:05.628Z,20.88
2022-08-28T00:07:49.187Z,23.90
2022-08-28T00:14:32.330Z,25.92
2022-08-28T00:21:15.432Z,24.80
2022-08-28T00:28:10.331Z,23.63
2022-08-28T00:34:53.302Z,24.15
2022-08-28T00:41:38.796Z,24.35
2022-08-28T00:48:23.634Z,23.90
2022-08-28T00:55:10.568Z,25.58
2022-08-28T01:01:58.847Z,23.60
2022-08-28T01:08:44.627Z,21.90
2022-08-28T01:15:35.870Z,24.20
2022-08-28T01:22:41.435Z,25.63
2022-08-28T01:29:23.891Z,22.33
2022-08-28T01:36:07.245Z,25.85
2022-08-28T01:42:50.261Z,24.55
2022-08-28T01:49:32.750Z,26.48
2022-08-28T01:56:16.653Z,28.83
2022-08-28T02:03:00.798Z,27.60
2022-08-28T02:09:43.856Z,28.88
2022-08-28T02:16:26.288Z,31.30
2022-08-28T02:23:09.726Z,29.70
2022-08-28T02:29:52.252Z,31.13
2022-08-28T02:36:34.608Z,31.75
2022-08-28T02:43:17.346Z,31.00
2022-08-28T02:49:59.816Z,27.63
2022-08-28T02:56:42.306Z,33.50
2022-08-28T03:03:24.666Z,33.08
2022-08-28T03:10:07.939Z,29.02
2022-08-28T03:16:50.564Z,27.65
2022-08-28T03:23:32.991Z,29.95
2022-08-28T03:30:16.002Z,31.88
2022-08-28T03:36:59.317Z,33.40
2022-08-28T03:43:42.499Z,30.77
2022-08-28T03:50:24.913Z,35.35
2022-08-28T03:57:07.499Z,33.13
2022-08-28T04:03:50.046Z,29.15
2022-08-28T04:10:33.053Z,29.45
2022-08-28T04:17:16.412Z,31.27
2022-08-28T04:23:58.799Z,32.42
2022-08-28T04:30:41.818Z,28.17
2022-08-28T04:37:26.155Z,27.88
2022-08-28T04:44:10.556Z,32.58
2022-08-28T04:50:52.926Z,30.45
2022-08-28T04:57:36.484Z,30.10
2022-08-28T05:04:19.972Z,30.67
2022-08-28T05:11:35.217Z,29.33
2022-08-28T05:18:21.815Z,29.73
2022-08-28T05:25:04.454Z,30.60
2022-08-28T05:31:47.667Z,29.30
2022-08-28T05:38:30.123Z,32.20
2022-08-28T05:45:13.355Z,29.98
2022-08-28T05:51:55.900Z,27.80
2022-08-28T05:58:40.273Z,23.98
2022-08-28T06:05:22.660Z,23.38
2022-08-28T06:12:05.490Z,22.08
2022-08-28T06:18:48.877Z,23.08
2022-08-28T06:25:31.439Z,18.70
2022-08-28T06:32:19.261Z,18.25
2022-08-28T06:39:04.050Z,16.20
2022-08-28T06:45:49.421Z,15.63
2022-08-28T06:52:31.846Z,17.08
2022-08-28T06:59:14.393Z,15.60
2022-08-28T07:05:59.108Z,18.27
2022-08-28T07:12:41.537Z,14.82
2022-08-28T07:19:23.916Z,18.48
2022-08-28T07:26:09.285Z,16.27
2022-08-28T07:32:51.648Z,18.13
2022-08-28T07:39:34.990Z,16.83
2022-08-28T07:46:17.444Z,20.95
2022-08-28T07:52:59.983Z,16.70
2022-08-28T07:59:42.911Z,16.05
2022-08-28T08:06:33.896Z,16.38
2022-08-28T08:13:16.883Z,12.80
2022-08-28T08:20:01.075Z,14.05
2022-08-28T08:26:46.928Z,15.55
2022-08-28T08:33:42.790Z,12.20
2022-08-28T08:40:25.274Z,12.50
2022-08-28T08:47:25.797Z,12.15
2022-08-28T08:54:12.937Z,11.60
2022-08-28T09:01:03.654Z,12.18
2022-08-28T09:07:59.267Z,11.40
2022-08-28T09:15:09.588Z,11.52
2022-08-28T09:21:52.833Z,10.10
2022-08-28T09:28:40.844Z,9.20
2022-08-28T09:35:34.772Z,11.60
2022-08-28T09:42:42.238Z,11.50
2022-08-28T09:49:28.600Z,10.18
2022-08-28T09:56:19.007Z,12.13
2022-08-28T10:03:15.694Z,11.05
2022-08-28T10:10:07.538Z,9.45
2022-08-28T10:17:00.988Z,9.90
2022-08-28T10:24:15.337Z,10.02
2022-08-28T10:31:26.803Z,11.20
2022-08-28T10:38:18.238Z,10.27
2022-08-28T10:45:15.129Z,8.77
2022-08-28T10:52:05.138Z,8.00
2022-08-28T10:58:51.337Z,9.23
2022-08-28T11:05:41.467Z,7.50
2022-08-28T11:12:37.959Z,8.38
2022-08-28T11:19:29.975Z,9.05
2022-08-28T11:26:14.523Z,9.43
2022-08-28T11:33:00.282Z,9.27
2022-08-28T11:39:42.671Z,8.10
2022-08-28T11:46:33.833Z,8.35
2022-08-28T11:53:43.145Z,9.80
2022-08-28T12:00:50.325Z,10.20
2022-08-28T12:07:39.680Z,8.32
2022-08-28T12:14:25.051Z,6.88
2022-08-28T12:21:14.875Z,7.07
2022-08-28T12:27:59.768Z,8.35
2022-08-28T12:35:12.557Z,7.68
2022-08-28T12:41:55.201Z,8.13
2022-08-28T12:48:54.404Z,7.07
2022-08-28T12:55:39.103Z,7.82
2022-08-28T13:02:24.453Z,6.80
2022-08-28T13:09:18.352Z,8.30
2022-08-28T13:16:04.493Z,7.25
2022-08-28T13:22:50.826Z,5.78
2022-08-28T13:29:34.091Z,10.00
2022-08-28T13:36:25.023Z,5.85
2022-08-28T13:43:11.212Z,7.68
2022-08-28T13:49:54.006Z,6.22
2022-08-28T13:56:36.348Z,6.75
2022-08-28T14:03:37.844Z,9.15
2022-08-28T14:10:20.307Z,6.13
2022-08-28T14:17:02.994Z,7.78
2022-08-28T14:23:45.415Z,7.13
2022-08-28T14:30:27.946Z,5.30
2022-08-28T14:37:10.279Z,6.47
2022-08-28T14:43:53.874Z,5.80
2022-08-28T14:50:43.933Z,6.20
2022-08-28T14:57:26.423Z,7.15
2022-08-28T15:04:11.745Z,5.88
2022-08-28T15:10:54.741Z,4.97
2022-08-28T15:17:37.113Z,7.85
2022-08-28T15:24:23.700Z,7.20
2022-08-28T15:31:06.398Z,5.28
2022-08-28T15:37:48.844Z,7.72
2022-08-28T15:44:31.393Z,5.65
2022-08-28T15:51:14.403Z,6.05
2022-08-28T15:57:57.381Z,4.68
2022-08-28T16:04:39.847Z,6.78
2022-08-28T16:11:23.223Z,5.93
2022-08-28T16:18:08.796Z,5.40
2022-08-28T16:24:51.203Z,4.53
2022-08-28T16:31:34.275Z,5.65
2022-08-28T16:38:17.164Z,5.53
2022-08-28T16:44:59.820Z,5.40
2022-08-28T16:51:42.194Z,5.10
2022-08-28T16:58:24.728Z,4.70
2022-08-28T17:05:07.887Z,6.00
2022-08-28T17:11:52.282Z,4.20
2022-08-28T17:18:34.896Z,5.57
2022-08-28T17:25:17.625Z,8.32
2022-08-28T17:32:00.079Z,4.72
2022-08-28T17:38:42.826Z,6.03
2022-08-28T17:45:25.455Z,6.97
2022-08-28T17:52:07.903Z,4.88
2022-08-28T17:58:50.318Z,5.47
2022-08-28T18:05:33.157Z,8.00
2022-08-28T18:12:15.808Z,4.50
2022-08-28T18:18:58.845Z,5.00
2022-08-28T18:25:41.452Z,5.68
2022-08-28T18:32:25.826Z,7.88
2022-08-28T18:39:09.256Z,7.07
2022-08-28T18:45:51.729Z,4.95
2022-08-28T18:52:34.782Z,9.40
2022-08-28T18:59:18.207Z,6.15
2022-08-28T19:06:01.092Z,7.15
2022-08-28T19:12:43.519Z,6.20
2022-08-28T19:19:26.200Z,6.63
2022-08-28T19:26:09.707Z,5.13
2022-08-28T19:32:52.048Z,7.53
2022-08-28T19:39:34.437Z,9.02
2022-08-28T19:46:19.699Z,5.60
2022-08-28T19:53:03.007Z,6.88
2022-08-28T19:59:45.419Z,6.57
2022-08-28T20:06:30.210Z,7.57
2022-08-28T20:13:13.913Z,11.35
2022-08-28T20:20:02.977Z,9.05
2022-08-28T20:26:46.290Z,7.03
2022-08-28T20:33:28.826Z,8.23
2022-08-28T20:40:11.983Z,8.07
2022-08-28T20:46:54.758Z,7.90
2022-08-28T20:53:38.119Z,8.93
2022-08-28T21:00:20.659Z,8.93
2022-08-28T21:07:03.582Z,9.90
2022-08-28T21:13:45.924Z,9.13
2022-08-28T21:20:29.135Z,10.88
2022-08-28T21:27:12.211Z,11.57
2022-08-28T21:33:54.618Z,8.65
2022-08-28T21:40:37.169Z,13.15
2022-08-28T21:47:22.843Z,8.38
2022-08-28T21:54:05.370Z,9.52
2022-08-28T22:00:54.058Z,10.93
2022-08-28T22:07:39.684Z,12.68
2022-08-28T22:14:24.507Z,9.93
2022-08-28T22:21:29.445Z,12.30
2022-08-28T22:28:11.882Z,12.85
2022-08-28T22:34:55.192Z,10.85
2022-08-28T22:41:38.556Z,11.27
2022-08-28T22:48:21.028Z,10.82
2022-08-28T22:55:04.447Z,9.65
2022-08-28T23:01:49.107Z,11.38
2022-08-28T23:08:33.977Z,10.98
2022-08-28T23:15:20.032Z,10.77
2022-08-28T23:22:02.619Z,12.23
2022-08-28T23:28:45.333Z,11.43
2022-08-28T23:35:27.886Z,10.35
2022-08-28T23:42:10.291Z,11.35
2022-08-28T23:48:52.787Z,12.70
2022-08-28T23:55:35.278Z,11.80
